sensor_id;sensor_type;location;lat;lon;timestamp;P1;durP1;ratioP1;P2;durP2;ratioP2
79137;SDS011;68544;45.566;10.238;2023-06-14T00:02:02;10.40;;;9.30;;
79137;SDS011;68544;45.566;10.238;2023-06-14T00:06:53;11.23;;;10.10;;
79137;SDS011;68544;45.566;10.238;2023-06-14T00:09:21;10.98;;;9.77;;
79137;SDS011;68544;45.566;10.238;2023-06-14T00:11:47;10.65;;;9.55;;
79137;SDS011;68544;45.566;10.238;2023-06-14T00:14:13;16.90;;;9.40;;
79137;SDS011;68544;45.566;10.238;2023-06-14T00:16:39;11.05;;;9.95;;
79137;SDS011;68544;45.566;10.238;2023-06-14T00:19:07;11.88;;;10.70;;
79137;SDS011;68544;45.566;10.238;2023-06-14T00:21:33;11.68;;;10.45;;
79137;SDS011;68544;45.566;10.238;2023-06-14T00:24:00;12.57;;;11.20;;
79137;SDS011;68544;45.566;10.238;2023-06-14T00:26:25;11.07;;;10.15;;
79137;SDS011;68544;45.566;10.238;2023-06-14T00:28:51;12.05;;;10.93;;
79137;SDS011;68544;45.566;10.238;2023-06-14T00:33:42;10.80;;;9.27;;
79137;SDS011;68544;45.566;10.238;2023-06-14T00:36:08;10.82;;;8.85;;
79137;SDS011;68544;45.566;10.238;2023-06-14T00:38:33;9.90;;;9.00;;
79137;SDS011;68544;45.566;10.238;2023-06-14T00:40:58;10.10;;;9.20;;
79137;SDS011;68544;45.566;10.238;2023-06-14T00:43:24;9.93;;;8.93;;
79137;SDS011;68544;45.566;10.238;2023-06-14T00:45:49;9.80;;;8.97;;
79137;SDS011;68544;45.566;10.238;2023-06-14T00:48:16;10.07;;;9.10;;
79137;SDS011;68544;45.566;10.238;2023-06-14T00:50:41;9.60;;;8.55;;
79137;SDS011;68544;45.566;10.238;2023-06-14T00:53:10;9.45;;;8.27;;
79137;SDS011;68544;45.566;10.238;2023-06-14T00:55:40;10.38;;;8.80;;
79137;SDS011;68544;45.566;10.238;2023-06-14T00:58:06;10.95;;;9.75;;
79137;SDS011;68544;45.566;10.238;2023-06-14T01:00:31;10.02;;;9.02;;
79137;SDS011;68544;45.566;10.238;2023-06-14T01:02:56;11.23;;;8.57;;
79137;SDS011;68544;45.566;10.238;2023-06-14T01:05:22;11.82;;;10.02;;
79137;SDS011;68544;45.566;10.238;2023-06-14T01:13:21;9.38;;;8.48;;
79137;SDS011;68544;45.566;10.238;2023-06-14T01:15:52;9.30;;;8.48;;
79137;SDS011;68544;45.566;10.238;2023-06-14T01:18:19;8.63;;;7.72;;
79137;SDS011;68544;45.566;10.238;2023-06-14T01:20:45;9.80;;;7.97;;
79137;SDS011;68544;45.566;10.238;2023-06-14T01:23:17;10.35;;;8.07;;
79137;SDS011;68544;45.566;10.238;2023-06-14T01:25:46;9.88;;;7.72;;
79137;SDS011;68544;45.566;10.238;2023-06-14T01:28:13;8.23;;;6.82;;
79137;SDS011;68544;45.566;10.238;2023-06-14T01:30:41;8.80;;;7.85;;
79137;SDS011;68544;45.566;10.238;2023-06-14T01:33:13;9.07;;;7.93;;
79137;SDS011;68544;45.566;10.238;2023-06-14T01:35:46;10.38;;;9.38;;
79137;SDS011;68544;45.566;10.238;2023-06-14T01:38:13;11.05;;;10.02;;
79137;SDS011;68544;45.566;10.238;2023-06-14T01:40:40;11.20;;;10.20;;
79137;SDS011;68544;45.566;10.238;2023-06-14T01:43:07;11.88;;;10.55;;
79137;SDS011;68544;45.566;10.238;2023-06-14T01:45:33;11.43;;;10.25;;
79137;SDS011;68544;45.566;10.238;2023-06-14T01:48:00;9.30;;;8.30;;
79137;SDS011;68544;45.566;10.238;2023-06-14T01:50:32;8.27;;;7.47;;
79137;SDS011;68544;45.566;10.238;2023-06-14T01:52:57;8.45;;;7.55;;
79137;SDS011;68544;45.566;10.238;2023-06-14T01:55:23;7.90;;;7.20;;
79137;SDS011;68544;45.566;10.238;2023-06-14T01:57:52;8.20;;;7.47;;
79137;SDS011;68544;45.566;10.238;2023-06-14T02:02:43;8.82;;;7.80;;
79137;SDS011;68544;45.566;10.238;2023-06-14T02:05:09;9.60;;;7.25;;
79137;SDS011;68544;45.566;10.238;2023-06-14T02:07:35;9.40;;;7.85;;
79137;SDS011;68544;45.566;10.238;2023-06-14T02:10:00;9.95;;;7.72;;
79137;SDS011;68544;45.566;10.238;2023-06-14T02:12:26;8.03;;;7.23;;
79137;SDS011;68544;45.566;10.238;2023-06-14T02:14:51;8.47;;;7.40;;
79137;SDS011;68544;45.566;10.238;2023-06-14T02:17:16;8.70;;;7.80;;
79137;SDS011;68544;45.566;10.238;2023-06-14T02:19:42;8.25;;;7.45;;
79137;SDS011;68544;45.566;10.238;2023-06-14T02:22:07;8.82;;;8.02;;
79137;SDS011;68544;45.566;10.238;2023-06-14T02:24:33;9.20;;;8.20;;
79137;SDS011;68544;45.566;10.238;2023-06-14T02:26:58;8.77;;;7.93;;
79137;SDS011;68544;45.566;10.238;2023-06-14T02:29:23;8.50;;;7.63;;
79137;SDS011;68544;45.566;10.238;2023-06-14T02:31:49;10.40;;;7.57;;
79137;SDS011;68544;45.566;10.238;2023-06-14T02:34:14;9.25;;;7.70;;
79137;SDS011;68544;45.566;10.238;2023-06-14T02:36:42;9.00;;;8.20;;
79137;SDS011;68544;45.566;10.238;2023-06-14T02:39:10;10.88;;;8.32;;
79137;SDS011;68544;45.566;10.238;2023-06-14T02:41:36;8.45;;;7.65;;
79137;SDS011;68544;45.566;10.238;2023-06-14T02:44:02;9.80;;;7.75;;
79137;SDS011;68544;45.566;10.238;2023-06-14T02:46:27;8.02;;;7.15;;
79137;SDS011;68544;45.566;10.238;2023-06-14T02:48:52;8.03;;;7.23;;
79137;SDS011;68544;45.566;10.238;2023-06-14T02:51:18;9.73;;;7.35;;
79137;SDS011;68544;45.566;10.238;2023-06-14T02:53:43;8.17;;;7.30;;
79137;SDS011;68544;45.566;10.238;2023-06-14T02:56:09;9.93;;;7.30;;
79137;SDS011;68544;45.566;10.238;2023-06-14T02:58:36;9.57;;;6.18;;
79137;SDS011;68544;45.566;10.238;2023-06-14T03:01:01;7.57;;;6.35;;
79137;SDS011;68544;45.566;10.238;2023-06-14T03:03:28;9.98;;;6.25;;
79137;SDS011;68544;45.566;10.238;2023-06-14T03:05:54;8.32;;;6.20;;
79137;SDS011;68544;45.566;10.238;2023-06-14T03:08:20;7.72;;;6.38;;
79137;SDS011;68544;45.566;10.238;2023-06-14T03:10:46;9.17;;;6.03;;
79137;SDS011;68544;45.566;10.238;2023-06-14T03:13:15;8.02;;;6.70;;
79137;SDS011;68544;45.566;10.238;2023-06-14T03:15:44;7.25;;;6.55;;
79137;SDS011;68544;45.566;10.238;2023-06-14T03:18:10;8.90;;;6.40;;
79137;SDS011;68544;45.566;10.238;2023-06-14T03:20:37;8.52;;;6.85;;
79137;SDS011;68544;45.566;10.238;2023-06-14T03:23:02;7.28;;;6.55;;
79137;SDS011;68544;45.566;10.238;2023-06-14T03:25:28;8.98;;;6.63;;
79137;SDS011;68544;45.566;10.238;2023-06-14T03:27:59;7.20;;;6.10;;
79137;SDS011;68544;45.566;10.238;2023-06-14T03:30:24;7.10;;;6.10;;
79137;SDS011;68544;45.566;10.238;2023-06-14T03:32:50;7.43;;;6.00;;
79137;SDS011;68544;45.566;10.238;2023-06-14T03:35:17;6.78;;;5.70;;
79137;SDS011;68544;45.566;10.238;2023-06-14T03:37:44;7.18;;;6.30;;
79137;SDS011;68544;45.566;10.238;2023-06-14T03:40:10;8.85;;;6.18;;
79137;SDS011;68544;45.566;10.238;2023-06-14T03:42:37;7.63;;;6.60;;
79137;SDS011;68544;45.566;10.238;2023-06-14T03:45:02;7.63;;;5.63;;
79137;SDS011;68544;45.566;10.238;2023-06-14T03:49:54;7.63;;;5.87;;
79137;SDS011;68544;45.566;10.238;2023-06-14T03:52:19;7.00;;;6.17;;
79137;SDS011;68544;45.566;10.238;2023-06-14T03:54:44;6.93;;;6.20;;
79137;SDS011;68544;45.566;10.238;2023-06-14T03:57:09;8.67;;;6.20;;
79137;SDS011;68544;45.566;10.238;2023-06-14T03:59:35;6.68;;;6.00;;
79137;SDS011;68544;45.566;10.238;2023-06-14T04:02:01;7.60;;;6.55;;
79137;SDS011;68544;45.566;10.238;2023-06-14T04:04:27;8.55;;;6.95;;
79137;SDS011;68544;45.566;10.238;2023-06-14T04:06:53;8.75;;;6.30;;
79137;SDS011;68544;45.566;10.238;2023-06-14T04:09:19;8.52;;;6.68;;
79137;SDS011;68544;45.566;10.238;2023-06-14T04:11:44;7.67;;;6.23;;
79137;SDS011;68544;45.566;10.238;2023-06-14T04:14:10;8.00;;;6.33;;
79137;SDS011;68544;45.566;10.238;2023-06-14T04:16:35;7.73;;;6.87;;
79137;SDS011;68544;45.566;10.238;2023-06-14T04:19:00;7.68;;;6.22;;
79137;SDS011;68544;45.566;10.238;2023-06-14T04:21:25;8.77;;;6.53;;
79137;SDS011;68544;45.566;10.238;2023-06-14T04:23:52;7.07;;;5.50;;
79137;SDS011;68544;45.566;10.238;2023-06-14T04:26:20;7.50;;;6.00;;
79137;SDS011;68544;45.566;10.238;2023-06-14T04:28:48;6.35;;;5.75;;
79137;SDS011;68544;45.566;10.238;2023-06-14T04:31:14;8.32;;;5.97;;
79137;SDS011;68544;45.566;10.238;2023-06-14T04:33:41;8.13;;;5.70;;
79137;SDS011;68544;45.566;10.238;2023-06-14T04:36:11;6.90;;;5.82;;
79137;SDS011;68544;45.566;10.238;2023-06-14T04:38:38;7.15;;;6.18;;
79137;SDS011;68544;45.566;10.238;2023-06-14T04:43:29;7.07;;;6.03;;
79137;SDS011;68544;45.566;10.238;2023-06-14T04:45:56;8.13;;;5.88;;
79137;SDS011;68544;45.566;10.238;2023-06-14T04:48:22;7.75;;;5.50;;
79137;SDS011;68544;45.566;10.238;2023-06-14T04:50:47;7.23;;;5.53;;
79137;SDS011;68544;45.566;10.238;2023-06-14T04:53:13;8.45;;;6.32;;
79137;SDS011;68544;45.566;10.238;2023-06-14T04:55:38;8.48;;;5.68;;
79137;SDS011;68544;45.566;10.238;2023-06-14T04:58:04;6.93;;;5.50;;
79137;SDS011;68544;45.566;10.238;2023-06-14T05:00:29;9.63;;;5.55;;
79137;SDS011;68544;45.566;10.238;2023-06-14T05:02:55;6.78;;;5.53;;
79137;SDS011;68544;45.566;10.238;2023-06-14T05:05:22;8.95;;;5.13;;
79137;SDS011;68544;45.566;10.238;2023-06-14T05:07:47;6.30;;;5.03;;
79137;SDS011;68544;45.566;10.238;2023-06-14T05:10:13;9.65;;;5.25;;
79137;SDS011;68544;45.566;10.238;2023-06-14T05:12:38;5.10;;;4.60;;
79137;SDS011;68544;45.566;10.238;2023-06-14T05:15:04;9.38;;;5.28;;
79137;SDS011;68544;45.566;10.238;2023-06-14T05:17:29;7.50;;;5.05;;
79137;SDS011;68544;45.566;10.238;2023-06-14T05:19:55;5.88;;;5.28;;
79137;SDS011;68544;45.566;10.238;2023-06-14T05:22:21;7.95;;;5.47;;
79137;SDS011;68544;45.566;10.238;2023-06-14T05:24:46;7.55;;;5.35;;
79137;SDS011;68544;45.566;10.238;2023-06-14T05:27:13;7.30;;;5.10;;
79137;SDS011;68544;45.566;10.238;2023-06-14T05:29:38;6.60;;;5.35;;
79137;SDS011;68544;45.566;10.238;2023-06-14T05:32:04;8.73;;;5.80;;
79137;SDS011;68544;45.566;10.238;2023-06-14T05:34:30;5.93;;;5.20;;
79137;SDS011;68544;45.566;10.238;2023-06-14T05:36:55;8.07;;;5.22;;
79137;SDS011;68544;45.566;10.238;2023-06-14T05:39:20;7.60;;;4.97;;
79137;SDS011;68544;45.566;10.238;2023-06-14T05:41:46;7.37;;;4.83;;
79137;SDS011;68544;45.566;10.238;2023-06-14T05:44:11;7.37;;;5.53;;
79137;SDS011;68544;45.566;10.238;2023-06-14T05:46:36;6.47;;;5.03;;
79137;SDS011;68544;45.566;10.238;2023-06-14T05:49:02;8.40;;;5.13;;
79137;SDS011;68544;45.566;10.238;2023-06-14T05:51:27;6.57;;;5.15;;
79137;SDS011;68544;45.566;10.238;2023-06-14T05:53:52;10.73;;;5.80;;
79137;SDS011;68544;45.566;10.238;2023-06-14T05:56:18;8.00;;;5.03;;
79137;SDS011;68544;45.566;10.238;2023-06-14T05:58:44;6.60;;;5.47;;
79137;SDS011;68544;45.566;10.238;2023-06-14T06:01:10;7.55;;;5.13;;
79137;SDS011;68544;45.566;10.238;2023-06-14T06:03:36;7.30;;;4.85;;
79137;SDS011;68544;45.566;10.238;2023-06-14T06:06:01;5.82;;;4.80;;
79137;SDS011;68544;45.566;10.238;2023-06-14T06:08:28;7.43;;;5.45;;
79137;SDS011;68544;45.566;10.238;2023-06-14T06:10:53;5.50;;;4.40;;
79137;SDS011;68544;45.566;10.238;2023-06-14T06:13:19;6.97;;;4.18;;
79137;SDS011;68544;45.566;10.238;2023-06-14T06:15:44;7.63;;;4.63;;
79137;SDS011;68544;45.566;10.238;2023-06-14T06:18:09;6.10;;;4.38;;
79137;SDS011;68544;45.566;10.238;2023-06-14T06:20:35;5.28;;;4.53;;
79137;SDS011;68544;45.566;10.238;2023-06-14T06:23:01;8.48;;;4.50;;
79137;SDS011;68544;45.566;10.238;2023-06-14T06:25:27;5.80;;;4.68;;
79137;SDS011;68544;45.566;10.238;2023-06-14T06:27:53;6.65;;;4.85;;
79137;SDS011;68544;45.566;10.238;2023-06-14T06:30:21;5.70;;;4.30;;
79137;SDS011;68544;45.566;10.238;2023-06-14T06:32:46;8.93;;;4.68;;
79137;SDS011;68544;45.566;10.238;2023-06-14T06:37:38;5.65;;;4.43;;
79137;SDS011;68544;45.566;10.238;2023-06-14T06:40:04;6.70;;;4.65;;
79137;SDS011;68544;45.566;10.238;2023-06-14T06:42:30;4.68;;;4.13;;
79137;SDS011;68544;45.566;10.238;2023-06-14T06:44:56;5.75;;;3.70;;
79137;SDS011;68544;45.566;10.238;2023-06-14T06:47:22;8.50;;;4.03;;
79137;SDS011;68544;45.566;10.238;2023-06-14T06:52:13;5.80;;;3.60;;
79137;SDS011;68544;45.566;10.238;2023-06-14T06:54:38;4.93;;;3.50;;
79137;SDS011;68544;45.566;10.238;2023-06-14T06:59:30;6.37;;;4.23;;
79137;SDS011;68544;45.566;10.238;2023-06-14T07:01:56;6.80;;;4.10;;
79137;SDS011;68544;45.566;10.238;2023-06-14T07:06:46;8.45;;;4.68;;
79137;SDS011;68544;45.566;10.238;2023-06-14T07:11:39;5.22;;;4.47;;
79137;SDS011;68544;45.566;10.238;2023-06-14T07:14:05;9.25;;;4.68;;
79137;SDS011;68544;45.566;10.238;2023-06-14T07:18:55;7.77;;;3.87;;
79137;SDS011;68544;45.566;10.238;2023-06-14T07:23:46;5.93;;;3.65;;
79137;SDS011;68544;45.566;10.238;2023-06-14T07:28:37;7.43;;;3.80;;
79137;SDS011;68544;45.566;10.238;2023-06-14T07:33:27;4.90;;;4.43;;
79137;SDS011;68544;45.566;10.238;2023-06-14T07:38:18;5.50;;;4.90;;
79137;SDS011;68544;45.566;10.238;2023-06-14T07:43:09;7.22;;;4.75;;
79137;SDS011;68544;45.566;10.238;2023-06-14T07:47:59;6.88;;;5.43;;
79137;SDS011;68544;45.566;10.238;2023-06-14T07:52:50;6.97;;;5.53;;
79137;SDS011;68544;45.566;10.238;2023-06-14T07:57:41;6.85;;;5.03;;
79137;SDS011;68544;45.566;10.238;2023-06-14T08:00:07;7.68;;;4.60;;
79137;SDS011;68544;45.566;10.238;2023-06-14T08:02:35;7.35;;;4.38;;
79137;SDS011;68544;45.566;10.238;2023-06-14T08:07:26;5.88;;;4.63;;
79137;SDS011;68544;45.566;10.238;2023-06-14T08:12:16;5.15;;;3.42;;
79137;SDS011;68544;45.566;10.238;2023-06-14T08:17:07;4.45;;;3.63;;
79137;SDS011;68544;45.566;10.238;2023-06-14T08:20:31;6.95;;;4.28;;
79137;SDS011;68544;45.566;10.238;2023-06-14T08:23:55;4.63;;;3.63;;
79137;SDS011;68544;45.566;10.238;2023-06-14T08:27:19;6.03;;;4.18;;
79137;SDS011;68544;45.566;10.238;2023-06-14T08:30:43;5.63;;;3.70;;
79137;SDS011;68544;45.566;10.238;2023-06-14T08:34:07;5.35;;;4.22;;
79137;SDS011;68544;45.566;10.238;2023-06-14T08:37:32;5.28;;;3.63;;
79137;SDS011;68544;45.566;10.238;2023-06-14T08:40:56;5.47;;;3.80;;
79137;SDS011;68544;45.566;10.238;2023-06-14T08:44:21;5.88;;;3.42;;
79137;SDS011;68544;45.566;10.238;2023-06-14T08:47:46;5.07;;;3.38;;
79137;SDS011;68544;45.566;10.238;2023-06-14T08:51:12;5.53;;;3.67;;
79137;SDS011;68544;45.566;10.238;2023-06-14T08:54:38;5.25;;;3.30;;
79137;SDS011;68544;45.566;10.238;2023-06-14T08:57:08;8.07;;;4.65;;
79137;SDS011;68544;45.566;10.238;2023-06-14T08:59:37;7.85;;;3.90;;
79137;SDS011;68544;45.566;10.238;2023-06-14T09:02:11;6.72;;;4.53;;
79137;SDS011;68544;45.566;10.238;2023-06-14T09:04:38;5.03;;;3.65;;
79137;SDS011;68544;45.566;10.238;2023-06-14T09:07:04;8.18;;;3.70;;
79137;SDS011;68544;45.566;10.238;2023-06-14T09:09:31;6.20;;;4.03;;
79137;SDS011;68544;45.566;10.238;2023-06-14T09:14:25;6.67;;;3.63;;
79137;SDS011;68544;45.566;10.238;2023-06-14T09:16:56;6.22;;;3.70;;
79137;SDS011;68544;45.566;10.238;2023-06-14T09:19:23;7.20;;;3.72;;
79137;SDS011;68544;45.566;10.238;2023-06-14T09:21:49;8.40;;;3.72;;
